Aviation Digital Data Service (ADDS)

Output produced by METARs form (1851 UTC 16 December 2017)
found at http://www.aviationweather.gov/adds/metars/
 
METAR text: KOLM 161806Z 16003KT 4SM BR SCT027 OVC100 03/03 A3034 RMK AO2 T00280028
Conditions at: KOLM (OLYMPIA , WA, US) observed 1806 UTC 16 December 2017
Temperature: 2.8°C (37°F)
Dewpoint: 2.8°C (37°F) [RH = 100%]
Pressure (altimeter): 30.34 inches Hg (1027.5 mb)
Winds: from the SSE (160 degrees) at 3 MPH (3 knots; 1.6 m/s)
Visibility: 4 miles (6 km)
Ceiling: 10000 feet AGL
Clouds: scattered clouds at 2700 feet AGL
overcast cloud deck at 10000 feet AGL
Weather: BR  (mist)